createdAt,value
2019-02-28T00:00:06.766Z,9.94
2019-02-28T00:02:40.036Z,9.86
2019-02-28T00:05:11.165Z,10.07
2019-02-28T00:07:42.141Z,9.98
2019-02-28T00:10:13.763Z,10.05
2019-02-28T00:12:45.203Z,10.07
2019-02-28T00:15:17.475Z,10.00
2019-02-28T00:17:48.602Z,10.08
2019-02-28T00:20:19.658Z,10.09
2019-02-28T00:22:50.681Z,10.07
2019-02-28T00:25:21.760Z,9.99
2019-02-28T00:27:53.440Z,10.10
2019-02-28T00:30:25.813Z,10.01
2019-02-28T00:32:59.322Z,10.01
2019-02-28T00:35:30.045Z,10.00
2019-02-28T00:38:01.728Z,9.89
2019-02-28T00:40:32.807Z,9.88
2019-02-28T00:43:03.823Z,9.71
2019-02-28T00:45:37.203Z,9.69
2019-02-28T00:48:08.039Z,9.86
2019-02-28T00:50:39.268Z,9.96
2019-02-28T00:53:10.312Z,9.96
2019-02-28T00:55:41.366Z,9.86
2019-02-28T00:58:12.409Z,9.95
2019-02-28T01:00:43.850Z,9.95
2019-02-28T01:03:14.901Z,10.03
2019-02-28T01:05:45.978Z,9.79
2019-02-28T01:08:19.146Z,9.92
2019-02-28T01:10:49.700Z,9.97
2019-02-28T01:13:20.697Z,9.90
2019-02-28T01:15:51.897Z,9.88
2019-02-28T01:18:22.864Z,9.89
2019-02-28T01:20:53.991Z,10.01
2019-02-28T01:23:29.315Z,9.94
2019-02-28T01:25:59.151Z,9.85
2019-02-28T01:28:30.114Z,9.89
2019-02-28T01:31:02.098Z,9.86
2019-02-28T01:33:34.049Z,9.85
2019-02-28T01:36:05.098Z,9.88
2019-02-28T01:38:36.066Z,9.88
2019-02-28T01:41:08.325Z,9.81
2019-02-28T01:43:40.157Z,9.65
2019-02-28T01:46:11.238Z,9.61
2019-02-28T01:48:42.237Z,9.53
2019-02-28T01:51:13.489Z,9.54
2019-02-28T01:53:44.835Z,9.59
2019-02-28T01:56:16.116Z,9.72
2019-02-28T01:58:47.657Z,9.72
2019-02-28T02:01:19.844Z,9.81
2019-02-28T02:03:51.064Z,9.77
2019-02-28T02:06:22.594Z,9.85
2019-02-28T02:08:56.539Z,10.02
2019-02-28T02:11:27.543Z,10.01
2019-02-28T02:13:58.805Z,9.96
2019-02-28T02:16:29.793Z,9.99
2019-02-28T02:19:01.900Z,9.97
2019-02-28T02:21:35.031Z,9.92
2019-02-28T02:24:06.303Z,10.05
2019-02-28T02:26:37.307Z,10.08
2019-02-28T02:29:08.341Z,9.81
2019-02-28T02:31:39.821Z,9.80
2019-02-28T02:34:11.052Z,9.67
2019-02-28T02:36:44.751Z,9.67
2019-02-28T02:39:17.557Z,9.61
2019-02-28T02:41:48.966Z,9.40
2019-02-28T02:44:20.123Z,9.53
2019-02-28T02:46:55.448Z,9.54
2019-02-28T02:49:24.116Z,9.49
2019-02-28T02:51:56.717Z,9.47
2019-02-28T02:54:28.138Z,9.52
2019-02-28T02:56:59.231Z,9.52
2019-02-28T02:59:37.538Z,9.53
2019-02-28T03:02:02.906Z,9.41
2019-02-28T03:04:33.991Z,9.50
2019-02-28T03:07:05.065Z,9.43
2019-02-28T03:09:36.369Z,9.53
2019-02-28T03:12:07.805Z,9.67
2019-02-28T03:14:38.859Z,9.62
2019-02-28T03:17:12.040Z,9.65
2019-02-28T03:19:42.789Z,9.61
2019-02-28T03:22:14.189Z,9.66
2019-02-28T03:24:50.475Z,9.55
2019-02-28T03:27:19.999Z,9.51
2019-02-28T03:29:51.370Z,9.47
2019-02-28T03:32:22.446Z,9.61
2019-02-28T03:34:58.228Z,9.72
2019-02-28T03:37:32.751Z,9.70
2019-02-28T03:40:04.423Z,9.54
2019-02-28T03:42:32.290Z,9.47
2019-02-28T03:45:03.540Z,9.62
2019-02-28T03:47:34.595Z,9.66
2019-02-28T03:50:06.158Z,9.69
2019-02-28T03:52:42.118Z,9.75
2019-02-28T03:55:10.111Z,9.67
2019-02-28T03:57:41.399Z,9.60
2019-02-28T04:00:17.893Z,9.69
2019-02-28T04:02:56.865Z,9.61
2019-02-28T04:05:26.678Z,9.64
2019-02-28T04:07:56.014Z,9.55
2019-02-28T04:10:27.129Z,9.59
2019-02-28T04:12:58.396Z,9.54
2019-02-28T04:15:29.577Z,9.55
2019-02-28T04:18:06.661Z,9.48
2019-02-28T04:20:37.463Z,9.44
2019-02-28T04:23:07.407Z,9.50
2019-02-28T04:25:38.396Z,9.53
2019-02-28T04:28:09.369Z,9.56
2019-02-28T04:30:43.867Z,9.48
2019-02-28T04:33:13.480Z,9.53
2019-02-28T04:35:44.492Z,9.56
2019-02-28T04:38:20.441Z,9.54
2019-02-28T04:40:48.867Z,9.59
2019-02-28T04:43:20.095Z,9.55
2019-02-28T04:45:51.158Z,9.57
2019-02-28T04:48:22.517Z,9.56
2019-02-28T04:50:53.550Z,9.52
2019-02-28T04:53:24.528Z,9.43
2019-02-28T04:55:55.556Z,9.42
2019-02-28T04:58:27.848Z,9.27
2019-02-28T05:00:58.831Z,9.26
2019-02-28T05:03:29.952Z,9.29
2019-02-28T05:06:02.173Z,9.28
2019-02-28T05:08:38.655Z,9.18
2019-02-28T05:11:06.193Z,9.09
2019-02-28T05:13:37.171Z,9.06
2019-02-28T05:16:09.400Z,9.12
2019-02-28T05:18:41.237Z,9.08
2019-02-28T05:21:12.250Z,9.17
2019-02-28T05:23:43.835Z,8.99
2019-02-28T05:26:15.212Z,9.03
2019-02-28T05:28:46.672Z,9.16
2019-02-28T05:31:17.667Z,9.15
2019-02-28T05:33:48.975Z,9.18
2019-02-28T05:36:20.263Z,9.30
2019-02-28T05:38:53.546Z,9.26
2019-02-28T05:41:24.317Z,9.26
2019-02-28T05:43:55.651Z,9.28
2019-02-28T05:46:28.682Z,9.35
2019-02-28T05:49:00.501Z,9.40
2019-02-28T05:51:31.882Z,9.30
2019-02-28T05:54:04.432Z,9.37
2019-02-28T05:56:36.193Z,9.32
2019-02-28T05:59:07.232Z,9.28
2019-02-28T06:01:38.672Z,9.26
2019-02-28T06:04:09.649Z,9.25
2019-02-28T06:06:41.165Z,9.32
2019-02-28T06:09:13.690Z,9.22
2019-02-28T06:11:45.352Z,9.28
2019-02-28T06:14:16.965Z,9.26
2019-02-28T06:16:48.330Z,9.23
2019-02-28T06:19:20.320Z,9.20
2019-02-28T06:21:53.007Z,9.22
2019-02-28T06:24:24.437Z,9.20
2019-02-28T06:26:56.970Z,9.23
2019-02-28T06:29:28.033Z,9.18
2019-02-28T06:31:59.243Z,9.03
2019-02-28T06:34:30.250Z,9.20
2019-02-28T06:37:03.617Z,9.19
2019-02-28T06:39:37.607Z,9.22
2019-02-28T06:42:11.808Z,9.19
2019-02-28T06:44:43.497Z,9.07
2019-02-28T06:47:14.789Z,9.04
2019-02-28T06:49:45.890Z,9.08
2019-02-28T06:52:17.133Z,8.97
2019-02-28T06:54:48.345Z,9.19
2019-02-28T06:57:19.441Z,9.27
2019-02-28T06:59:50.857Z,9.40
2019-02-28T07:02:22.110Z,9.40
2019-02-28T07:04:53.469Z,9.49
2019-02-28T07:07:24.820Z,9.47
2019-02-28T07:09:56.146Z,9.65
2019-02-28T07:12:29.950Z,9.65
2019-02-28T07:15:02.655Z,9.90
2019-02-28T07:17:34.597Z,9.86
2019-02-28T07:20:09.679Z,9.98
2019-02-28T07:22:42.691Z,10.15
2019-02-28T07:25:14.078Z,10.11
2019-02-28T07:27:45.208Z,10.27
2019-02-28T07:30:18.451Z,10.28
2019-02-28T07:32:49.444Z,10.47
2019-02-28T07:35:20.717Z,10.48
2019-02-28T07:37:54.307Z,10.66
2019-02-28T07:40:24.625Z,10.58
2019-02-28T07:42:55.638Z,10.77
2019-02-28T07:45:29.632Z,10.83
2019-02-28T07:47:59.816Z,11.04
2019-02-28T07:50:30.865Z,11.21
2019-02-28T07:53:05.599Z,11.42
2019-02-28T07:55:35.597Z,11.66
2019-02-28T07:58:06.738Z,11.85
2019-02-28T08:00:38.261Z,12.06
2019-02-28T08:03:11.334Z,12.17
2019-02-28T08:05:42.185Z,12.46
2019-02-28T08:08:13.553Z,12.65
2019-02-28T08:10:48.004Z,12.86
2019-02-28T08:13:17.311Z,13.08
2019-02-28T08:15:49.030Z,13.22
2019-02-28T08:18:20.501Z,13.41
2019-02-28T08:20:51.519Z,13.64
2019-02-28T08:23:22.546Z,13.76
2019-02-28T08:25:53.824Z,13.83
2019-02-28T08:28:29.545Z,13.99
2019-02-28T08:31:00.384Z,14.11
2019-02-28T08:33:31.382Z,14.26
2019-02-28T08:36:02.801Z,14.39
2019-02-28T08:38:34.449Z,14.56
2019-02-28T08:41:06.626Z,14.68
2019-02-28T08:43:38.606Z,14.78
2019-02-28T08:46:13.030Z,14.82
2019-02-28T08:48:43.275Z,15.05
2019-02-28T08:51:14.340Z,15.13
2019-02-28T08:53:50.953Z,15.31
2019-02-28T08:56:18.014Z,15.49
2019-02-28T08:58:49.372Z,15.71
2019-02-28T09:01:20.449Z,15.80
2019-02-28T09:03:51.519Z,15.87
2019-02-28T09:06:22.811Z,16.11
2019-02-28T09:08:56.629Z,16.23
2019-02-28T09:11:26.577Z,16.26
2019-02-28T09:13:57.569Z,16.54
2019-02-28T09:16:28.585Z,16.57
2019-02-28T09:19:00.950Z,16.61
2019-02-28T09:21:32.282Z,16.63
2019-02-28T09:24:03.263Z,16.87
2019-02-28T09:26:34.241Z,16.88
2019-02-28T09:29:05.761Z,17.07
2019-02-28T09:31:39.179Z,17.20
2019-02-28T09:34:09.858Z,17.25
2019-02-28T09:36:41.136Z,17.33
2019-02-28T09:39:12.147Z,17.42
2019-02-28T09:41:43.129Z,17.71
2019-02-28T09:44:14.387Z,17.62
2019-02-28T09:46:47.453Z,17.79
2019-02-28T09:49:18.583Z,17.72
2019-02-28T09:51:49.566Z,17.90
2019-02-28T09:54:21.429Z,17.94
2019-02-28T09:56:53.843Z,18.05
2019-02-28T09:59:25.335Z,18.23
2019-02-28T10:02:01.308Z,18.17
2019-02-28T10:04:30.494Z,18.17
2019-02-28T10:07:02.243Z,18.17
2019-02-28T10:09:33.231Z,18.24
2019-02-28T10:12:07.789Z,18.36
2019-02-28T10:14:37.300Z,18.46
2019-02-28T10:17:08.399Z,18.59
2019-02-28T10:19:45.556Z,18.66
2019-02-28T10:22:12.902Z,18.77
2019-02-28T10:24:45.532Z,18.79
2019-02-28T10:27:16.505Z,18.88
2019-02-28T10:29:47.512Z,18.94
2019-02-28T10:32:18.588Z,19.04
2019-02-28T10:34:49.883Z,19.10
2019-02-28T10:37:22.836Z,19.09
2019-02-28T10:39:53.563Z,19.00
2019-02-28T10:42:24.953Z,18.94
2019-02-28T10:44:56.035Z,19.10
2019-02-28T10:47:29.644Z,19.05
2019-02-28T10:50:00.579Z,19.09
2019-02-28T10:52:31.852Z,19.38
2019-02-28T10:55:03.739Z,19.49
2019-02-28T10:57:37.221Z,19.50
2019-02-28T11:00:13.393Z,19.44
2019-02-28T11:02:46.093Z,19.39
2019-02-28T11:05:21.645Z,19.46
2019-02-28T11:07:53.709Z,19.25
2019-02-28T11:10:34.828Z,19.36
2019-02-28T11:13:04.037Z,19.26
2019-02-28T11:15:35.284Z,19.48
2019-02-28T11:18:09.540Z,19.36
2019-02-28T11:20:42.324Z,19.22
2019-02-28T11:23:15.654Z,19.29
2019-02-28T11:25:47.788Z,19.15
2019-02-28T11:28:19.412Z,19.41
2019-02-28T11:30:50.967Z,19.39
2019-02-28T11:33:22.887Z,19.45
2019-02-28T11:35:57.655Z,19.46
2019-02-28T11:38:27.026Z,19.65
2019-02-28T11:40:58.214Z,19.92
2019-02-28T11:43:29.453Z,19.69
2019-02-28T11:46:02.978Z,19.47
2019-02-28T11:48:34.096Z,19.48
2019-02-28T11:51:05.215Z,19.56
2019-02-28T11:53:39.322Z,19.56
2019-02-28T11:56:08.973Z,19.67
2019-02-28T11:58:40.603Z,19.55
2019-02-28T12:01:11.731Z,19.50
2019-02-28T12:03:43.040Z,19.55
2019-02-28T12:06:14.444Z,19.63
2019-02-28T12:08:46.478Z,19.57
2019-02-28T12:11:17.449Z,19.50
2019-02-28T12:13:51.586Z,19.50
2019-02-28T12:16:21.868Z,19.41
2019-02-28T12:18:54.295Z,19.48
2019-02-28T12:21:25.268Z,19.79
2019-02-28T12:23:57.308Z,19.88
2019-02-28T12:26:29.291Z,20.13
2019-02-28T12:29:00.287Z,20.11
2019-02-28T12:31:32.074Z,20.34
2019-02-28T12:34:05.185Z,20.26
2019-02-28T12:36:36.898Z,20.35
2019-02-28T12:39:09.433Z,20.21
2019-02-28T12:41:40.828Z,20.32
2019-02-28T12:44:12.356Z,20.44
2019-02-28T12:46:45.256Z,20.53
2019-02-28T12:49:21.790Z,20.54
2019-02-28T12:51:49.653Z,20.38
2019-02-28T12:54:20.643Z,20.21
2019-02-28T12:56:51.786Z,20.24
2019-02-28T12:59:22.857Z,20.30
2019-02-28T13:01:53.898Z,20.19
2019-02-28T13:04:25.012Z,20.08
2019-02-28T13:06:58.822Z,20.03
2019-02-28T13:09:30.234Z,20.09
2019-02-28T13:12:01.414Z,20.03
2019-02-28T13:14:32.562Z,20.27
2019-02-28T13:17:04.104Z,20.30
2019-02-28T13:19:35.498Z,20.17
2019-02-28T13:22:07.045Z,20.11
2019-02-28T13:24:38.080Z,20.03
2019-02-28T13:27:10.836Z,19.99
2019-02-28T13:29:42.106Z,20.12
2019-02-28T13:32:13.499Z,20.15
2019-02-28T13:34:45.210Z,20.33
2019-02-28T13:37:16.329Z,20.19
2019-02-28T13:39:47.595Z,20.12
2019-02-28T13:42:18.580Z,20.28
2019-02-28T13:44:50.380Z,20.45
2019-02-28T13:47:22.127Z,20.14
2019-02-28T13:49:53.396Z,20.06
2019-02-28T13:52:24.982Z,20.17
2019-02-28T13:54:56.042Z,19.95
2019-02-28T13:57:27.975Z,20.16
2019-02-28T13:59:59.133Z,20.09
2019-02-28T14:02:33.639Z,20.14
2019-02-28T14:05:04.217Z,20.04
2019-02-28T14:07:37.327Z,20.09
2019-02-28T14:10:11.611Z,20.14
2019-02-28T14:12:44.284Z,19.94
2019-02-28T14:15:18.459Z,19.78
2019-02-28T14:17:49.662Z,19.84
2019-02-28T14:20:20.835Z,19.95
2019-02-28T14:22:52.006Z,20.04
2019-02-28T14:25:23.828Z,19.89
2019-02-28T14:27:56.865Z,19.90
2019-02-28T14:30:28.000Z,20.00
2019-02-28T14:32:59.243Z,20.12
2019-02-28T14:35:33.892Z,20.23
2019-02-28T14:38:03.552Z,20.19
2019-02-28T14:40:34.908Z,20.01
2019-02-28T14:43:06.049Z,19.77
2019-02-28T14:45:39.176Z,19.67
2019-02-28T14:48:10.719Z,19.72
2019-02-28T14:50:41.862Z,19.73
2019-02-28T14:53:14.267Z,19.51
2019-02-28T14:55:45.706Z,19.53
2019-02-28T14:58:16.812Z,19.48
2019-02-28T15:00:48.235Z,19.51
2019-02-28T15:03:19.910Z,19.57
2019-02-28T15:05:52.420Z,19.67
2019-02-28T15:08:23.939Z,19.66
2019-02-28T15:10:55.188Z,19.64
2019-02-28T15:13:26.485Z,19.63
2019-02-28T15:15:57.543Z,19.74
2019-02-28T15:18:29.169Z,19.82
2019-02-28T15:21:00.260Z,19.66
2019-02-28T15:23:34.201Z,19.50
2019-02-28T15:26:04.242Z,19.60
2019-02-28T15:28:35.250Z,19.62
2019-02-28T15:31:08.620Z,19.53
2019-02-28T15:33:39.412Z,19.54
2019-02-28T15:36:11.201Z,19.67
2019-02-28T15:38:44.548Z,19.57
2019-02-28T15:41:15.689Z,19.46
2019-02-28T15:43:47.158Z,19.38
2019-02-28T15:46:18.110Z,19.41
2019-02-28T15:48:49.171Z,19.47
2019-02-28T15:51:20.260Z,19.07
2019-02-28T15:53:51.593Z,18.70
2019-02-28T15:56:23.139Z,18.48
2019-02-28T15:58:54.478Z,18.48
2019-02-28T16:01:28.605Z,18.49
2019-02-28T16:03:58.716Z,18.26
2019-02-28T16:06:29.786Z,18.19
2019-02-28T16:09:00.848Z,18.05
2019-02-28T16:11:33.613Z,18.03
2019-02-28T16:14:04.675Z,17.94
2019-02-28T16:16:35.850Z,17.57
2019-02-28T16:19:07.370Z,17.51
2019-02-28T16:21:40.918Z,17.48
2019-02-28T16:24:12.526Z,17.25
2019-02-28T16:26:43.667Z,17.33
2019-02-28T16:29:20.388Z,17.44
2019-02-28T16:31:48.391Z,17.34
2019-02-28T16:34:19.712Z,17.52
2019-02-28T16:36:50.783Z,17.37
2019-02-28T16:39:21.911Z,17.32
2019-02-28T16:41:53.079Z,17.31
2019-02-28T16:44:24.113Z,17.29
2019-02-28T16:46:55.799Z,16.78
2019-02-28T16:49:27.350Z,16.91
2019-02-28T16:51:58.462Z,17.08
2019-02-28T16:54:29.696Z,16.96
2019-02-28T16:57:00.682Z,16.97
2019-02-28T16:59:32.510Z,16.87
2019-02-28T17:02:04.307Z,16.90
2019-02-28T17:04:35.567Z,16.67
2019-02-28T17:07:09.566Z,16.54
2019-02-28T17:09:42.170Z,16.58
2019-02-28T17:12:50.529Z,16.68
2019-02-28T17:15:28.519Z,16.32
2019-02-28T17:18:03.467Z,16.20
2019-02-28T17:20:34.549Z,16.15
2019-02-28T17:23:05.831Z,16.26
2019-02-28T17:25:36.970Z,16.18
2019-02-28T17:28:16.160Z,16.11
2019-02-28T17:30:59.551Z,15.96
2019-02-28T17:33:30.710Z,16.04
2019-02-28T17:36:01.813Z,16.07
2019-02-28T17:38:37.289Z,15.93
2019-02-28T17:41:06.083Z,15.83
2019-02-28T17:43:39.776Z,15.58
2019-02-28T17:46:12.176Z,15.47
2019-02-28T17:49:40.356Z,15.58
2019-02-28T17:52:20.617Z,15.57
2019-02-28T17:55:36.207Z,15.74
2019-02-28T17:58:18.073Z,15.77
2019-02-28T18:01:50.240Z,15.56
2019-02-28T18:05:06.324Z,15.39
2019-02-28T18:08:13.224Z,15.28
2019-02-28T18:11:48.734Z,15.24
2019-02-28T18:15:22.198Z,15.03
2019-02-28T18:19:03.769Z,15.10
2019-02-28T18:22:03.897Z,14.78
2019-02-28T18:25:23.392Z,14.87
2019-02-28T18:28:36.022Z,15.01
2019-02-28T18:31:32.892Z,14.81
2019-02-28T18:34:08.978Z,14.64
2019-02-28T18:36:43.102Z,14.56
2019-02-28T18:39:13.865Z,14.25
2019-02-28T18:41:45.228Z,14.34
2019-02-28T18:44:16.441Z,14.31
2019-02-28T18:46:48.927Z,14.11
2019-02-28T18:49:20.072Z,14.00
2019-02-28T18:51:51.476Z,14.23
2019-02-28T18:54:22.852Z,14.42
2019-02-28T18:56:54.377Z,14.40
2019-02-28T18:59:25.482Z,14.36
2019-02-28T19:01:56.622Z,14.39
2019-02-28T19:04:27.649Z,14.28
2019-02-28T19:06:59.039Z,14.37
2019-02-28T19:09:30.163Z,14.35
2019-02-28T19:12:01.316Z,14.12
2019-02-28T19:14:32.642Z,14.12
2019-02-28T19:17:04.264Z,13.95
2019-02-28T19:19:35.609Z,13.95
2019-02-28T19:22:06.717Z,13.91
2019-02-28T19:24:37.987Z,13.78
2019-02-28T19:27:36.541Z,13.64
2019-02-28T19:30:13.958Z,13.66
2019-02-28T19:32:45.128Z,13.89
2019-02-28T19:35:17.511Z,13.81
2019-02-28T19:37:48.636Z,13.76
2019-02-28T19:40:20.036Z,13.64
2019-02-28T19:42:51.528Z,13.53
2019-02-28T19:45:23.209Z,13.43
2019-02-28T19:47:54.199Z,13.65
2019-02-28T19:50:25.223Z,13.68
2019-02-28T19:52:56.609Z,13.48
2019-02-28T19:55:27.718Z,13.48
2019-02-28T19:58:00.041Z,13.66
2019-02-28T20:00:31.160Z,13.32
2019-02-28T20:03:04.402Z,13.29
2019-02-28T20:05:35.604Z,13.53
2019-02-28T20:08:06.910Z,13.31
2019-02-28T20:10:38.615Z,13.24
2019-02-28T20:13:09.826Z,13.13
2019-02-28T20:15:42.146Z,13.16
2019-02-28T20:18:15.290Z,13.32
2019-02-28T20:20:46.439Z,13.37
2019-02-28T20:23:17.572Z,13.46
2019-02-28T20:25:48.610Z,13.33
2019-02-28T20:28:20.574Z,13.40
2019-02-28T20:30:51.670Z,13.35
2019-02-28T20:33:22.806Z,13.41
2019-02-28T20:35:54.246Z,13.29
2019-02-28T20:38:25.622Z,13.31
2019-02-28T20:40:56.804Z,13.36
2019-02-28T20:43:27.820Z,13.04
2019-02-28T20:45:59.656Z,13.18
2019-02-28T20:48:31.881Z,13.28
2019-02-28T20:51:03.387Z,13.35
2019-02-28T20:53:34.716Z,13.38
2019-02-28T20:56:05.900Z,13.34
2019-02-28T20:58:37.234Z,13.34
2019-02-28T21:01:08.768Z,13.33
2019-02-28T21:03:39.820Z,13.40
2019-02-28T21:06:10.851Z,13.50
2019-02-28T21:08:42.492Z,13.57
2019-02-28T21:11:13.849Z,13.59
2019-02-28T21:13:45.178Z,13.40
2019-02-28T21:16:16.271Z,13.49
2019-02-28T21:18:47.354Z,13.70
2019-02-28T21:21:18.339Z,13.70
2019-02-28T21:23:50.165Z,13.74
2019-02-28T21:26:21.735Z,13.93
2019-02-28T21:28:52.956Z,14.01
2019-02-28T21:31:24.444Z,14.01
2019-02-28T21:33:55.583Z,13.77
2019-02-28T21:36:26.944Z,13.75
2019-02-28T21:38:58.268Z,13.87
2019-02-28T21:41:29.261Z,13.84
2019-02-28T21:44:00.867Z,13.88
2019-02-28T21:46:32.010Z,13.93
2019-02-28T21:49:03.255Z,13.93
2019-02-28T21:51:34.243Z,13.89
2019-02-28T21:54:05.338Z,14.04
2019-02-28T21:56:36.462Z,13.91
2019-02-28T21:59:07.762Z,13.79
2019-02-28T22:01:38.775Z,13.86
2019-02-28T22:04:10.736Z,13.96
2019-02-28T22:06:42.066Z,14.09
2019-02-28T22:09:13.401Z,13.97
2019-02-28T22:11:46.208Z,14.08
2019-02-28T22:14:18.676Z,14.10
2019-02-28T22:16:49.987Z,14.12
2019-02-28T22:19:20.977Z,14.02
2019-02-28T22:21:51.983Z,13.74
2019-02-28T22:24:23.037Z,13.82
2019-02-28T22:26:54.035Z,13.92
2019-02-28T22:29:25.987Z,14.06
2019-02-28T22:32:06.626Z,13.91
2019-02-28T22:34:56.647Z,13.80
2019-02-28T22:37:28.097Z,13.67
2019-02-28T22:39:59.077Z,13.63
2019-02-28T22:42:30.069Z,13.73
2019-02-28T22:45:01.054Z,13.41
2019-02-28T22:47:32.111Z,13.61
2019-02-28T22:50:03.115Z,13.46
2019-02-28T22:52:34.179Z,13.48
2019-02-28T22:55:05.655Z,13.43
2019-02-28T22:57:37.006Z,13.35
2019-02-28T23:00:20.646Z,13.15
2019-02-28T23:02:53.819Z,13.23
2019-02-28T23:05:25.415Z,13.20
2019-02-28T23:07:57.333Z,12.92
2019-02-28T23:10:29.092Z,13.09
2019-02-28T23:13:00.164Z,12.96
2019-02-28T23:15:31.305Z,13.25
2019-02-28T23:18:02.299Z,13.06
2019-02-28T23:20:33.353Z,13.02
2019-02-28T23:23:05.529Z,13.04
2019-02-28T23:25:36.609Z,13.05
2019-02-28T23:28:23.810Z,13.31
2019-02-28T23:31:58.450Z,13.25
2019-02-28T23:34:37.656Z,12.97
2019-02-28T23:37:08.841Z,13.06
2019-02-28T23:39:40.082Z,12.89
2019-02-28T23:42:11.266Z,12.70
2019-02-28T23:44:42.450Z,12.86
2019-02-28T23:47:13.518Z,12.92
2019-02-28T23:49:44.594Z,12.93
2019-02-28T23:52:15.771Z,12.92
2019-02-28T23:54:47.016Z,13.04
2019-02-28T23:57:18.272Z,12.96
2019-02-28T23:59:49.507Z,12.92
